Main page
METAR-TAF:

METAR-TAF

Airports :

Community_Airport

Owosso, Michigan, United States

latitude: 42-59-34N, longitude: 084-08-20W, elevation: 735 ft

Current weather observation

The report was made 12 minutes ago, at 09:35 UTC
Calm wind
Temperature 32°F
Humidity 86%
Pressure 30.09 in. Hg
Visibility: 10 miles
Clear sky

METAR: KRNP 220935Z AUTO 00000KT 10SM CLR 00/M02 A3009 RMK AO2 T00011020

Time: 05:47 (09:47 UTC)


TAF: missing

Weather observations and forecasts of more than 4000 airports (METAR and TAF reports).

The available stations are represented by yellow and red dots on the map.

Hover mouse over dot to see the name of the station.

Then click to see weather observations and forecasts.

To change the map : click on the green buttons with a black cross to zoom in, on the green button with a dash to zoom out, or on the green arrows for adjacent maps.


METAR-TAF: